sensor_id;sensor_type;location;lat;lon;timestamp;temperature;humidity
43015;DHT22;28637;50.554;7.032;2023-08-24T00:02:17;18.20;99.90
43015;DHT22;28637;50.554;7.032;2023-08-24T00:07:17;18.20;99.90
43015;DHT22;28637;50.554;7.032;2023-08-24T00:12:18;18.10;99.90
43015;DHT22;28637;50.554;7.032;2023-08-24T00:17:19;18.00;99.90
43015;DHT22;28637;50.554;7.032;2023-08-24T00:22:19;17.80;99.90
43015;DHT22;28637;50.554;7.032;2023-08-24T00:27:20;17.80;99.90
43015;DHT22;28637;50.554;7.032;2023-08-24T00:32:22;17.80;99.90
43015;DHT22;28637;50.554;7.032;2023-08-24T00:37:23;17.70;99.90
43015;DHT22;28637;50.554;7.032;2023-08-24T00:42:23;17.70;99.90
43015;DHT22;28637;50.554;7.032;2023-08-24T00:47:25;17.70;99.90
43015;DHT22;28637;50.554;7.032;2023-08-24T00:52:28;17.80;99.90
43015;DHT22;28637;50.554;7.032;2023-08-24T00:57:29;17.80;99.90
43015;DHT22;28637;50.554;7.032;2023-08-24T01:02:30;17.90;99.90
43015;DHT22;28637;50.554;7.032;2023-08-24T01:07:36;17.60;99.90
43015;DHT22;28637;50.554;7.032;2023-08-24T01:12:56;17.60;99.90
43015;DHT22;28637;50.554;7.032;2023-08-24T01:18:06;17.70;99.90
43015;DHT22;28637;50.554;7.032;2023-08-24T01:28:25;17.70;99.90
43015;DHT22;28637;50.554;7.032;2023-08-24T01:33:26;17.70;99.90
43015;DHT22;28637;50.554;7.032;2023-08-24T01:38:27;17.70;99.90
43015;DHT22;28637;50.554;7.032;2023-08-24T01:43:32;17.70;99.90
43015;DHT22;28637;50.554;7.032;2023-08-24T01:48:36;17.50;99.90
43015;DHT22;28637;50.554;7.032;2023-08-24T01:53:38;17.50;99.90
43015;DHT22;28637;50.554;7.032;2023-08-24T01:58:39;17.60;99.90
43015;DHT22;28637;50.554;7.032;2023-08-24T02:03:40;17.70;99.90
43015;DHT22;28637;50.554;7.032;2023-08-24T02:08:41;17.80;99.90
43015;DHT22;28637;50.554;7.032;2023-08-24T02:13:42;17.80;99.90
43015;DHT22;28637;50.554;7.032;2023-08-24T02:18:42;17.90;99.90
43015;DHT22;28637;50.554;7.032;2023-08-24T02:23:43;18.00;99.90
43015;DHT22;28637;50.554;7.032;2023-08-24T02:28:43;17.90;99.90
43015;DHT22;28637;50.554;7.032;2023-08-24T02:33:44;17.90;99.90
43015;DHT22;28637;50.554;7.032;2023-08-24T02:38:45;17.90;99.90
43015;DHT22;28637;50.554;7.032;2023-08-24T02:43:45;17.80;99.90
43015;DHT22;28637;50.554;7.032;2023-08-24T02:48:46;17.80;99.90
43015;DHT22;28637;50.554;7.032;2023-08-24T02:53:47;17.80;99.90
43015;DHT22;28637;50.554;7.032;2023-08-24T02:58:48;17.70;99.90
43015;DHT22;28637;50.554;7.032;2023-08-24T03:03:48;17.60;99.90
43015;DHT22;28637;50.554;7.032;2023-08-24T03:08:50;17.60;99.90
43015;DHT22;28637;50.554;7.032;2023-08-24T03:13:50;17.70;99.90
43015;DHT22;28637;50.554;7.032;2023-08-24T03:18:51;17.70;99.90
43015;DHT22;28637;50.554;7.032;2023-08-24T03:23:52;17.70;99.90
43015;DHT22;28637;50.554;7.032;2023-08-24T03:28:53;17.70;99.90
43015;DHT22;28637;50.554;7.032;2023-08-24T03:33:54;17.80;99.90
43015;DHT22;28637;50.554;7.032;2023-08-24T03:38:54;17.80;99.90
43015;DHT22;28637;50.554;7.032;2023-08-24T03:43:55;17.70;99.90
43015;DHT22;28637;50.554;7.032;2023-08-24T03:48:56;17.80;99.90
43015;DHT22;28637;50.554;7.032;2023-08-24T03:53:57;17.80;99.90
43015;DHT22;28637;50.554;7.032;2023-08-24T03:58:58;17.80;99.90
43015;DHT22;28637;50.554;7.032;2023-08-24T04:03:58;18.00;99.90
43015;DHT22;28637;50.554;7.032;2023-08-24T04:08:59;18.00;99.90
43015;DHT22;28637;50.554;7.032;2023-08-24T04:14:00;18.10;99.90
43015;DHT22;28637;50.554;7.032;2023-08-24T04:19:01;18.00;99.90
43015;DHT22;28637;50.554;7.032;2023-08-24T04:24:02;17.70;99.90
43015;DHT22;28637;50.554;7.032;2023-08-24T04:29:03;17.30;99.90
43015;DHT22;28637;50.554;7.032;2023-08-24T04:34:03;17.40;99.90
43015;DHT22;28637;50.554;7.032;2023-08-24T04:39:04;17.40;99.90
43015;DHT22;28637;50.554;7.032;2023-08-24T04:44:05;17.50;99.90
43015;DHT22;28637;50.554;7.032;2023-08-24T04:49:08;17.70;99.90
43015;DHT22;28637;50.554;7.032;2023-08-24T04:54:09;17.80;99.90
43015;DHT22;28637;50.554;7.032;2023-08-24T04:59:10;18.00;99.90
43015;DHT22;28637;50.554;7.032;2023-08-24T05:04:11;18.10;99.90
43015;DHT22;28637;50.554;7.032;2023-08-24T05:09:12;18.30;99.90
43015;DHT22;28637;50.554;7.032;2023-08-24T05:14:13;18.50;99.90
43015;DHT22;28637;50.554;7.032;2023-08-24T05:19:14;18.60;99.90
43015;DHT22;28637;50.554;7.032;2023-08-24T05:24:15;18.70;99.90
43015;DHT22;28637;50.554;7.032;2023-08-24T05:29:15;18.80;99.90
43015;DHT22;28637;50.554;7.032;2023-08-24T05:34:16;18.60;99.90
43015;DHT22;28637;50.554;7.032;2023-08-24T05:39:17;18.60;99.90
43015;DHT22;28637;50.554;7.032;2023-08-24T05:44:18;18.50;99.90
43015;DHT22;28637;50.554;7.032;2023-08-24T05:49:19;18.50;99.90
43015;DHT22;28637;50.554;7.032;2023-08-24T05:54:20;18.70;99.90
43015;DHT22;28637;50.554;7.032;2023-08-24T05:59:20;18.80;99.90
43015;DHT22;28637;50.554;7.032;2023-08-24T06:04:22;18.90;99.90
43015;DHT22;28637;50.554;7.032;2023-08-24T06:09:22;19.00;99.90
43015;DHT22;28637;50.554;7.032;2023-08-24T06:14:23;19.10;99.90
43015;DHT22;28637;50.554;7.032;2023-08-24T06:19:24;19.20;99.90
43015;DHT22;28637;50.554;7.032;2023-08-24T06:24:24;19.40;99.90
43015;DHT22;28637;50.554;7.032;2023-08-24T06:29:25;19.50;99.90
43015;DHT22;28637;50.554;7.032;2023-08-24T06:34:25;19.50;99.90
43015;DHT22;28637;50.554;7.032;2023-08-24T06:39:26;19.60;99.90
43015;DHT22;28637;50.554;7.032;2023-08-24T06:44:27;19.60;99.90
43015;DHT22;28637;50.554;7.032;2023-08-24T06:49:27;19.60;99.90
43015;DHT22;28637;50.554;7.032;2023-08-24T06:54:28;19.70;99.90
43015;DHT22;28637;50.554;7.032;2023-08-24T06:59:29;19.90;99.90
43015;DHT22;28637;50.554;7.032;2023-08-24T07:04:30;20.20;99.90
43015;DHT22;28637;50.554;7.032;2023-08-24T07:09:31;20.40;99.90
43015;DHT22;28637;50.554;7.032;2023-08-24T07:14:33;20.70;99.90
43015;DHT22;28637;50.554;7.032;2023-08-24T07:19:33;21.00;99.90
43015;DHT22;28637;50.554;7.032;2023-08-24T07:24:34;21.30;99.90
43015;DHT22;28637;50.554;7.032;2023-08-24T07:29:36;21.60;99.90
43015;DHT22;28637;50.554;7.032;2023-08-24T07:34:37;21.90;99.90
43015;DHT22;28637;50.554;7.032;2023-08-24T07:39:38;22.10;99.90
43015;DHT22;28637;50.554;7.032;2023-08-24T07:44:39;22.40;99.90
43015;DHT22;28637;50.554;7.032;2023-08-24T07:49:39;22.80;99.90
43015;DHT22;28637;50.554;7.032;2023-08-24T07:54:46;23.00;99.90
43015;DHT22;28637;50.554;7.032;2023-08-24T07:59:47;23.20;99.90
43015;DHT22;28637;50.554;7.032;2023-08-24T08:04:47;23.30;99.90
43015;DHT22;28637;50.554;7.032;2023-08-24T08:09:48;23.50;99.90
43015;DHT22;28637;50.554;7.032;2023-08-24T08:14:49;23.80;99.90
43015;DHT22;28637;50.554;7.032;2023-08-24T08:19:54;24.10;99.90
43015;DHT22;28637;50.554;7.032;2023-08-24T08:24:56;24.40;99.90
43015;DHT22;28637;50.554;7.032;2023-08-24T08:29:56;24.70;99.90
43015;DHT22;28637;50.554;7.032;2023-08-24T08:34:57;24.90;99.90
43015;DHT22;28637;50.554;7.032;2023-08-24T08:40:00;25.10;99.90
43015;DHT22;28637;50.554;7.032;2023-08-24T08:45:03;25.30;99.90
43015;DHT22;28637;50.554;7.032;2023-08-24T08:50:05;25.60;99.90
43015;DHT22;28637;50.554;7.032;2023-08-24T08:55:06;25.70;99.90
43015;DHT22;28637;50.554;7.032;2023-08-24T09:00:11;25.90;99.90
43015;DHT22;28637;50.554;7.032;2023-08-24T09:05:14;26.10;99.90
43015;DHT22;28637;50.554;7.032;2023-08-24T09:10:15;26.40;99.90
43015;DHT22;28637;50.554;7.032;2023-08-24T09:15:24;26.60;99.90
43015;DHT22;28637;50.554;7.032;2023-08-24T09:20:28;26.60;99.90
43015;DHT22;28637;50.554;7.032;2023-08-24T09:25:31;26.50;99.90
43015;DHT22;28637;50.554;7.032;2023-08-24T09:30:35;26.70;99.90
43015;DHT22;28637;50.554;7.032;2023-08-24T09:35:36;26.80;99.90
43015;DHT22;28637;50.554;7.032;2023-08-24T09:40:37;26.70;99.90
43015;DHT22;28637;50.554;7.032;2023-08-24T09:45:38;26.60;99.90
43015;DHT22;28637;50.554;7.032;2023-08-24T09:50:39;26.60;99.90
43015;DHT22;28637;50.554;7.032;2023-08-24T09:55:40;26.60;99.90
43015;DHT22;28637;50.554;7.032;2023-08-24T10:00:45;26.50;99.90
43015;DHT22;28637;50.554;7.032;2023-08-24T10:05:57;26.50;99.90
43015;DHT22;28637;50.554;7.032;2023-08-24T10:11:06;26.60;99.90
43015;DHT22;28637;50.554;7.032;2023-08-24T10:16:08;26.80;99.90
43015;DHT22;28637;50.554;7.032;2023-08-24T10:21:11;26.70;99.90
43015;DHT22;28637;50.554;7.032;2023-08-24T10:26:12;26.70;99.90
43015;DHT22;28637;50.554;7.032;2023-08-24T10:31:14;26.70;99.90
43015;DHT22;28637;50.554;7.032;2023-08-24T10:36:15;26.60;99.90
43015;DHT22;28637;50.554;7.032;2023-08-24T10:41:18;26.60;99.90
43015;DHT22;28637;50.554;7.032;2023-08-24T10:46:19;26.70;99.90
43015;DHT22;28637;50.554;7.032;2023-08-24T10:51:24;26.60;99.90
43015;DHT22;28637;50.554;7.032;2023-08-24T10:56:35;26.70;99.90
43015;DHT22;28637;50.554;7.032;2023-08-24T11:01:42;26.70;99.90
43015;DHT22;28637;50.554;7.032;2023-08-24T11:07:00;26.70;99.90
43015;DHT22;28637;50.554;7.032;2023-08-24T11:12:03;26.80;99.90
43015;DHT22;28637;50.554;7.032;2023-08-24T11:17:19;26.70;99.90
43015;DHT22;28637;50.554;7.032;2023-08-24T11:22:20;26.80;99.90
43015;DHT22;28637;50.554;7.032;2023-08-24T11:27:25;26.90;99.90
43015;DHT22;28637;50.554;7.032;2023-08-24T11:32:27;26.80;99.90
43015;DHT22;28637;50.554;7.032;2023-08-24T11:37:27;26.80;99.90
43015;DHT22;28637;50.554;7.032;2023-08-24T11:42:36;26.80;99.90
43015;DHT22;28637;50.554;7.032;2023-08-24T11:47:37;26.70;99.90
43015;DHT22;28637;50.554;7.032;2023-08-24T11:52:41;26.60;99.90
43015;DHT22;28637;50.554;7.032;2023-08-24T11:57:42;26.50;99.90
43015;DHT22;28637;50.554;7.032;2023-08-24T12:02:43;26.20;99.90
43015;DHT22;28637;50.554;7.032;2023-08-24T12:07:45;26.00;99.90
43015;DHT22;28637;50.554;7.032;2023-08-24T12:12:47;26.00;99.90
43015;DHT22;28637;50.554;7.032;2023-08-24T12:17:48;25.90;99.90
43015;DHT22;28637;50.554;7.032;2023-08-24T12:22:54;25.50;99.90
43015;DHT22;28637;50.554;7.032;2023-08-24T12:28:15;24.80;99.90
43015;DHT22;28637;50.554;7.032;2023-08-24T12:33:30;24.20;99.90
43015;DHT22;28637;50.554;7.032;2023-08-24T12:38:31;23.90;99.90
43015;DHT22;28637;50.554;7.032;2023-08-24T12:43:32;23.70;99.90
43015;DHT22;28637;50.554;7.032;2023-08-24T12:48:33;23.40;99.90
43015;DHT22;28637;50.554;7.032;2023-08-24T12:53:33;23.10;99.90
43015;DHT22;28637;50.554;7.032;2023-08-24T12:58:34;23.00;99.90
43015;DHT22;28637;50.554;7.032;2023-08-24T13:03:34;22.70;99.90
43015;DHT22;28637;50.554;7.032;2023-08-24T13:08:36;22.60;99.90
43015;DHT22;28637;50.554;7.032;2023-08-24T13:13:37;22.40;99.90
43015;DHT22;28637;50.554;7.032;2023-08-24T13:18:38;22.50;99.90
43015;DHT22;28637;50.554;7.032;2023-08-24T13:23:38;22.40;99.90
43015;DHT22;28637;50.554;7.032;2023-08-24T13:28:39;22.20;99.90
43015;DHT22;28637;50.554;7.032;2023-08-24T13:33:40;22.20;99.90
43015;DHT22;28637;50.554;7.032;2023-08-24T13:38:40;22.30;99.90
43015;DHT22;28637;50.554;7.032;2023-08-24T13:43:41;22.40;99.90
43015;DHT22;28637;50.554;7.032;2023-08-24T13:48:42;22.10;99.90
43015;DHT22;28637;50.554;7.032;2023-08-24T13:53:43;22.00;99.90
43015;DHT22;28637;50.554;7.032;2023-08-24T13:58:43;22.00;99.90
43015;DHT22;28637;50.554;7.032;2023-08-24T14:03:44;22.00;99.90
43015;DHT22;28637;50.554;7.032;2023-08-24T14:08:45;21.80;99.90
43015;DHT22;28637;50.554;7.032;2023-08-24T14:13:45;21.60;99.90
43015;DHT22;28637;50.554;7.032;2023-08-24T14:18:47;21.30;99.90
43015;DHT22;28637;50.554;7.032;2023-08-24T14:23:47;21.10;99.90
43015;DHT22;28637;50.554;7.032;2023-08-24T14:33:51;20.80;99.90
43015;DHT22;28637;50.554;7.032;2023-08-24T14:38:51;20.80;99.90
43015;DHT22;28637;50.554;7.032;2023-08-24T14:43:52;20.80;99.90
43015;DHT22;28637;50.554;7.032;2023-08-24T14:48:53;20.90;99.90
43015;DHT22;28637;50.554;7.032;2023-08-24T14:53:54;21.00;99.90
43015;DHT22;28637;50.554;7.032;2023-08-24T14:58:54;20.90;99.90
43015;DHT22;28637;50.554;7.032;2023-08-24T15:03:55;20.90;99.90
43015;DHT22;28637;50.554;7.032;2023-08-24T15:08:56;20.80;99.90
43015;DHT22;28637;50.554;7.032;2023-08-24T15:13:58;20.60;99.90
43015;DHT22;28637;50.554;7.032;2023-08-24T15:18:59;20.60;99.90
43015;DHT22;28637;50.554;7.032;2023-08-24T15:23:59;20.40;99.90
43015;DHT22;28637;50.554;7.032;2023-08-24T15:29:13;20.40;99.90
43015;DHT22;28637;50.554;7.032;2023-08-24T15:34:18;20.30;99.90
43015;DHT22;28637;50.554;7.032;2023-08-24T15:39:19;20.20;99.90
43015;DHT22;28637;50.554;7.032;2023-08-24T15:44:20;20.20;99.90
43015;DHT22;28637;50.554;7.032;2023-08-24T15:49:21;20.10;99.90
43015;DHT22;28637;50.554;7.032;2023-08-24T15:54:23;20.10;99.90
43015;DHT22;28637;50.554;7.032;2023-08-24T15:59:25;20.00;99.90
43015;DHT22;28637;50.554;7.032;2023-08-24T16:04:25;20.00;99.90
43015;DHT22;28637;50.554;7.032;2023-08-24T16:09:26;20.00;99.90
43015;DHT22;28637;50.554;7.032;2023-08-24T16:14:27;20.10;99.90
43015;DHT22;28637;50.554;7.032;2023-08-24T16:19:28;20.20;99.90
43015;DHT22;28637;50.554;7.032;2023-08-24T16:24:29;20.30;99.90
43015;DHT22;28637;50.554;7.032;2023-08-24T16:29:29;20.20;99.90
43015;DHT22;28637;50.554;7.032;2023-08-24T16:34:30;20.10;99.90
43015;DHT22;28637;50.554;7.032;2023-08-24T16:39:30;20.10;99.90
43015;DHT22;28637;50.554;7.032;2023-08-24T16:44:31;20.00;99.90
43015;DHT22;28637;50.554;7.032;2023-08-24T16:49:34;20.00;99.90
43015;DHT22;28637;50.554;7.032;2023-08-24T16:54:34;20.00;99.90
43015;DHT22;28637;50.554;7.032;2023-08-24T16:59:35;20.00;99.90
43015;DHT22;28637;50.554;7.032;2023-08-24T17:04:36;20.10;99.90
43015;DHT22;28637;50.554;7.032;2023-08-24T17:09:36;20.20;99.90
43015;DHT22;28637;50.554;7.032;2023-08-24T17:14:37;20.20;99.90
43015;DHT22;28637;50.554;7.032;2023-08-24T17:19:38;20.30;99.90
43015;DHT22;28637;50.554;7.032;2023-08-24T17:24:39;20.40;99.90
43015;DHT22;28637;50.554;7.032;2023-08-24T17:29:40;20.40;99.90
43015;DHT22;28637;50.554;7.032;2023-08-24T17:34:40;20.40;99.90
43015;DHT22;28637;50.554;7.032;2023-08-24T17:39:41;20.50;99.90
43015;DHT22;28637;50.554;7.032;2023-08-24T17:44:42;20.60;99.90
43015;DHT22;28637;50.554;7.032;2023-08-24T17:49:42;20.70;99.90
43015;DHT22;28637;50.554;7.032;2023-08-24T17:54:43;20.70;99.90
43015;DHT22;28637;50.554;7.032;2023-08-24T17:59:44;20.70;99.90
43015;DHT22;28637;50.554;7.032;2023-08-24T18:04:44;20.60;99.90
43015;DHT22;28637;50.554;7.032;2023-08-24T18:09:46;20.60;99.90
43015;DHT22;28637;50.554;7.032;2023-08-24T18:14:47;20.50;99.90
43015;DHT22;28637;50.554;7.032;2023-08-24T18:19:47;20.30;99.90
43015;DHT22;28637;50.554;7.032;2023-08-24T18:24:48;20.10;99.90
43015;DHT22;28637;50.554;7.032;2023-08-24T18:29:49;20.20;99.90
43015;DHT22;28637;50.554;7.032;2023-08-24T18:34:49;20.20;99.90
43015;DHT22;28637;50.554;7.032;2023-08-24T18:39:50;20.20;99.90
43015;DHT22;28637;50.554;7.032;2023-08-24T18:44:51;20.20;99.90
43015;DHT22;28637;50.554;7.032;2023-08-24T18:49:52;20.10;99.90
43015;DHT22;28637;50.554;7.032;2023-08-24T18:54:53;20.00;99.90
43015;DHT22;28637;50.554;7.032;2023-08-24T18:59:54;19.90;99.90
43015;DHT22;28637;50.554;7.032;2023-08-24T19:04:54;19.90;99.90
43015;DHT22;28637;50.554;7.032;2023-08-24T19:09:55;19.70;99.90
43015;DHT22;28637;50.554;7.032;2023-08-24T19:14:56;19.70;99.90
43015;DHT22;28637;50.554;7.032;2023-08-24T19:19:56;19.60;99.90
43015;DHT22;28637;50.554;7.032;2023-08-24T19:24:59;19.50;99.90
43015;DHT22;28637;50.554;7.032;2023-08-24T19:30:03;19.40;99.90
43015;DHT22;28637;50.554;7.032;2023-08-24T19:35:04;19.40;99.90
43015;DHT22;28637;50.554;7.032;2023-08-24T19:40:06;19.40;99.90
43015;DHT22;28637;50.554;7.032;2023-08-24T19:45:07;19.40;99.90
43015;DHT22;28637;50.554;7.032;2023-08-24T19:50:08;19.30;99.90
43015;DHT22;28637;50.554;7.032;2023-08-24T19:55:09;19.30;99.90
43015;DHT22;28637;50.554;7.032;2023-08-24T20:00:10;19.20;99.90
43015;DHT22;28637;50.554;7.032;2023-08-24T20:05:12;19.20;99.90
43015;DHT22;28637;50.554;7.032;2023-08-24T20:10:14;19.10;99.90
43015;DHT22;28637;50.554;7.032;2023-08-24T20:15:15;19.10;99.90
43015;DHT22;28637;50.554;7.032;2023-08-24T20:20:16;19.10;99.90
43015;DHT22;28637;50.554;7.032;2023-08-24T20:25:22;19.10;99.90
43015;DHT22;28637;50.554;7.032;2023-08-24T20:30:26;19.10;99.90
43015;DHT22;28637;50.554;7.032;2023-08-24T20:35:27;19.10;99.90
43015;DHT22;28637;50.554;7.032;2023-08-24T20:40:28;19.00;99.90
43015;DHT22;28637;50.554;7.032;2023-08-24T20:45:29;18.90;99.90
43015;DHT22;28637;50.554;7.032;2023-08-24T20:50:30;18.80;99.90
43015;DHT22;28637;50.554;7.032;2023-08-24T20:55:32;18.90;99.90
43015;DHT22;28637;50.554;7.032;2023-08-24T21:00:33;18.90;99.90
43015;DHT22;28637;50.554;7.032;2023-08-24T21:05:34;19.00;99.90
43015;DHT22;28637;50.554;7.032;2023-08-24T21:10:35;19.00;99.90
43015;DHT22;28637;50.554;7.032;2023-08-24T21:15:35;19.00;99.90
43015;DHT22;28637;50.554;7.032;2023-08-24T21:20:36;19.00;99.90
43015;DHT22;28637;50.554;7.032;2023-08-24T21:25:37;19.00;99.90
43015;DHT22;28637;50.554;7.032;2023-08-24T21:30:37;19.00;99.90
43015;DHT22;28637;50.554;7.032;2023-08-24T21:35:38;19.00;99.90
43015;DHT22;28637;50.554;7.032;2023-08-24T21:40:40;19.00;99.90
43015;DHT22;28637;50.554;7.032;2023-08-24T21:45:41;18.90;99.90
43015;DHT22;28637;50.554;7.032;2023-08-24T21:50:42;18.80;99.90
43015;DHT22;28637;50.554;7.032;2023-08-24T21:55:43;18.70;99.90
43015;DHT22;28637;50.554;7.032;2023-08-24T22:00:45;18.70;99.90
43015;DHT22;28637;50.554;7.032;2023-08-24T22:05:46;18.70;99.90
43015;DHT22;28637;50.554;7.032;2023-08-24T22:10:46;18.60;99.90
43015;DHT22;28637;50.554;7.032;2023-08-24T22:15:50;18.30;99.90
43015;DHT22;28637;50.554;7.032;2023-08-24T22:20:51;18.40;99.90
43015;DHT22;28637;50.554;7.032;2023-08-24T22:25:52;18.40;99.90
43015;DHT22;28637;50.554;7.032;2023-08-24T22:30:53;18.40;99.90
43015;DHT22;28637;50.554;7.032;2023-08-24T22:35:55;18.40;99.90
43015;DHT22;28637;50.554;7.032;2023-08-24T22:40:55;18.40;99.90
43015;DHT22;28637;50.554;7.032;2023-08-24T22:45:56;18.30;99.90
43015;DHT22;28637;50.554;7.032;2023-08-24T22:50:57;18.30;99.90
43015;DHT22;28637;50.554;7.032;2023-08-24T22:55:58;18.20;99.90
43015;DHT22;28637;50.554;7.032;2023-08-24T23:00:59;18.10;99.90
43015;DHT22;28637;50.554;7.032;2023-08-24T23:06:00;17.90;99.90
43015;DHT22;28637;50.554;7.032;2023-08-24T23:11:00;17.80;99.90
43015;DHT22;28637;50.554;7.032;2023-08-24T23:16:01;17.60;99.90
43015;DHT22;28637;50.554;7.032;2023-08-24T23:21:04;17.60;99.90
43015;DHT22;28637;50.554;7.032;2023-08-24T23:26:05;17.70;99.90
43015;DHT22;28637;50.554;7.032;2023-08-24T23:31:06;17.80;99.90
43015;DHT22;28637;50.554;7.032;2023-08-24T23:36:06;17.90;99.90
43015;DHT22;28637;50.554;7.032;2023-08-24T23:41:07;17.90;99.90
43015;DHT22;28637;50.554;7.032;2023-08-24T23:46:08;17.90;99.90
43015;DHT22;28637;50.554;7.032;2023-08-24T23:51:09;17.90;99.90
43015;DHT22;28637;50.554;7.032;2023-08-24T23:56:10;17.80;99.90
